Portada
METAR-TAF:

METAR-TAF

Aeroports :

Exmouth, Austràlia

latitud: 22-14S, longitud: 114-05E, altitud: 5 m

Observació

L'informe es va fer fa 27 minuts, a les 12:30 UTC
Vent 8 kt del Sud-Est
Temperatura 32°C
Humitat 43%
Pressió 1003 hPa
Núvols disperses a una alçada de 12500 ft

METAR: YPLM 241230Z AUTO 14008KT //// // SCT125 32/18 Q1003 RF00.0/000.0 PRESENT WEATHER SENSOR US

Hora: 20:57 (12:57 UTC)

Pronòstic

L'informe es va fer fa 1 hora i 45 minuts, a les 11:12 UTC
Pronòstic vàlid del 24 a les 12 UTC al 25 a les 12 UTC
Vent 14 kt del Sud-Est
Visibilitat 10 km o més
sense núvols per sota de 1500 mi sense presència de cumulonimbus.
A partir de les 25 a les 0100 UTC
Vent 18 kt del Sud-Est amb ràfegues de 28 kt
Visibilitat 10 km o més
sense núvols per sota de 1500 mi sense presència de cumulonimbus.

TAF: YPLM 241112Z 2412/2512 14014KT CAVOK FM250100 14018G28KT CAVOK

Observacions i pronòstics meteorològics de més de 4000 aeroports (METAR i TAF).

Les estacions disponibles són els punts grocs i vermells al mapa.

Posi el ratolí al punt desitjat per veure el nom de l'estació.

Feu clic per veure les observacions i els pronòstics meteorològics.

Per canviar el mapa: feu clic els botons verds amb una creu de color negre per apropar; al botó verd amb un guió per allunyar la imatge; o en les fletxes verdes per a mapes adjacents.


METAR-TAF: